createdAt,value
2017-11-13T06:42:17.566Z,1013.11
2017-11-13T06:43:39.070Z,1013.13
2017-11-13T06:45:01.579Z,1013.12
2017-11-13T06:46:24.081Z,1013.24
2017-11-13T06:47:46.246Z,1013.23
2017-11-13T06:49:08.110Z,1013.27
2017-11-13T06:50:30.286Z,1013.32
2017-11-13T06:51:52.175Z,1013.31
2017-11-13T06:53:13.734Z,1013.35
2017-11-13T06:54:35.568Z,1013.39
2017-11-13T06:55:58.073Z,1013.41
2017-11-13T06:57:19.595Z,1013.46
2017-11-13T06:58:41.448Z,1013.49
2017-11-13T07:00:03.614Z,1013.49
2017-11-13T07:01:25.610Z,1013.53
2017-11-13T07:02:47.547Z,1013.56
2017-11-13T07:04:09.425Z,1013.47
2017-11-13T07:05:30.948Z,1013.52
2017-11-13T07:06:52.796Z,1013.53
2017-11-13T07:08:14.702Z,1013.57
2017-11-13T07:09:36.919Z,1013.62
2017-11-13T07:10:58.427Z,1013.61
2017-11-13T07:12:19.939Z,1013.69
2017-11-13T07:13:41.556Z,1013.66
2017-11-13T07:15:03.422Z,1013.74
2017-11-13T07:16:25.051Z,1013.72
2017-11-13T07:17:46.941Z,1013.76
2017-11-13T07:19:08.459Z,1013.78
2017-11-13T07:20:30.897Z,1013.82
2017-11-13T07:21:53.480Z,1013.88
2017-11-13T07:23:15.990Z,1013.89
2017-11-13T07:24:38.492Z,1013.88
2017-11-13T07:26:00.712Z,1013.98
2017-11-13T07:27:22.910Z,1013.94
2017-11-13T07:28:45.143Z,1013.97
2017-11-13T07:30:07.376Z,1013.98
2017-11-13T07:31:30.170Z,1013.98
2017-11-13T07:32:52.347Z,1014.08
2017-11-13T07:34:14.536Z,1014.05
2017-11-13T07:35:36.059Z,1014.05
2017-11-13T07:36:58.727Z,1014.04
2017-11-13T07:38:20.240Z,1014.11
2017-11-13T07:39:42.123Z,1014.13
2017-11-13T07:41:04.778Z,1014.16
2017-11-13T07:42:26.930Z,1014.22
2017-11-13T07:43:48.781Z,1014.22
2017-11-13T07:45:10.650Z,1014.27
2017-11-13T07:46:32.177Z,1014.27
2017-11-13T07:47:54.705Z,1014.31
2017-11-13T07:49:17.006Z,1014.31
2017-11-13T07:50:38.208Z,1014.38
2017-11-13T07:52:00.406Z,1014.38
2017-11-13T07:53:22.266Z,1014.43
2017-11-13T07:54:44.632Z,1014.47
2017-11-13T07:56:06.493Z,1014.48
2017-11-13T07:57:28.704Z,1014.52
2017-11-13T07:58:50.568Z,1014.52
2017-11-13T08:00:12.098Z,1014.48
2017-11-13T08:01:34.285Z,1014.48
2017-11-13T08:02:56.898Z,1014.49
2017-11-13T08:04:18.895Z,1014.5
2017-11-13T08:05:40.798Z,1014.57
2017-11-13T08:07:02.677Z,1014.57
2017-11-13T08:08:24.925Z,1014.59
2017-11-13T08:09:47.138Z,1014.59
2017-11-13T08:11:09.644Z,1014.64
2017-11-13T08:12:32.188Z,1014.63
2017-11-13T08:13:54.045Z,1014.66
2017-11-13T08:15:15.918Z,1014.71
2017-11-13T08:16:38.149Z,1014.74
2017-11-13T08:18:00.357Z,1014.75
2017-11-13T08:19:22.879Z,1014.76
2017-11-13T08:20:45.416Z,1014.78
2017-11-13T08:22:07.269Z,1014.8
2017-11-13T08:23:29.519Z,1014.85
2017-11-13T08:24:51.708Z,1014.86
2017-11-13T08:26:14.329Z,1014.91
2017-11-13T08:27:36.875Z,1014.95
2017-11-13T08:28:59.095Z,1015.01
2017-11-13T08:30:21.329Z,1015.03
2017-11-13T08:33:34.933Z,1015.03
2017-11-13T08:34:57.127Z,1015.03
2017-11-13T08:36:18.647Z,1015.05
2017-11-13T08:37:40.619Z,1015.06
2017-11-13T08:39:02.806Z,1015.07
2017-11-13T08:40:25.015Z,1015.06
2017-11-13T08:41:46.901Z,1015.07
2017-11-13T08:43:09.106Z,1015.09
2017-11-13T08:44:30.596Z,1015.18
2017-11-13T08:45:52.460Z,1015.11
2017-11-13T08:47:14.665Z,1015.17
2017-11-13T08:48:36.561Z,1015.18
2017-11-13T08:49:57.773Z,1015.18
2017-11-13T08:51:20.017Z,1015.25
2017-11-13T08:52:42.198Z,1015.24
2017-11-13T08:54:04.715Z,1015.31
2017-11-13T08:55:26.945Z,1015.3
2017-11-13T08:56:48.797Z,1015.36
2017-11-13T08:58:10.633Z,1015.39
2017-11-13T08:59:32.931Z,1015.39
2017-11-13T09:00:55.146Z,1015.44
2017-11-13T09:02:17.003Z,1015.44
2017-11-13T09:03:39.534Z,1015.48
2017-11-13T09:05:01.060Z,1015.52
2017-11-13T09:06:23.258Z,1015.56
2017-11-13T09:07:45.132Z,1015.61
2017-11-13T09:09:07.321Z,1015.63
2017-11-13T09:10:29.908Z,1015.63
2017-11-13T09:11:51.820Z,1015.58
2017-11-13T09:13:14.411Z,1015.64
2017-11-13T09:14:36.265Z,1015.62
2017-11-13T09:15:58.492Z,1015.65
2017-11-13T09:17:20.696Z,1015.73
2017-11-13T09:18:42.911Z,1015.71
2017-11-13T09:20:05.480Z,1015.78
2017-11-13T09:21:27.053Z,1015.79
2017-11-13T09:22:48.896Z,1015.8
2017-11-13T09:24:10.824Z,1015.86
2017-11-13T09:25:32.344Z,1015.83
2017-11-13T09:26:53.876Z,1015.83
2017-11-13T09:28:15.718Z,1015.8
2017-11-13T09:29:37.559Z,1015.82
2017-11-13T09:30:59.132Z,1015.85
2017-11-13T09:32:20.658Z,1015.85
2017-11-13T09:33:42.176Z,1015.86
2017-11-13T09:35:04.115Z,1015.91
2017-11-13T09:36:26.308Z,1015.94
2017-11-13T09:37:48.315Z,1015.93
2017-11-13T09:39:10.488Z,1015.92
2017-11-13T09:40:31.990Z,1015.94
2017-11-13T09:41:54.188Z,1015.94
2017-11-13T09:43:16.017Z,1015.95
2017-11-13T09:44:37.880Z,1016
2017-11-13T09:46:00.147Z,1016.04
2017-11-13T09:47:22.036Z,1016.04
2017-11-13T09:48:44.445Z,1016.02
2017-11-13T09:50:06.307Z,1015.98
2017-11-13T09:51:28.481Z,1015.94
2017-11-13T09:52:49.989Z,1015.91
2017-11-13T09:54:12.604Z,1015.97
2017-11-13T09:55:35.154Z,1015.93
2017-11-13T09:56:56.670Z,1015.98
2017-11-13T09:58:18.184Z,1016
2017-11-13T09:59:40.700Z,1016.09
2017-11-13T10:01:02.674Z,1016.1
2017-11-13T10:02:24.850Z,1016.1
2017-11-13T10:03:46.373Z,1016.17
2017-11-13T10:05:08.598Z,1016.19
2017-11-13T10:06:30.800Z,1016.21
2017-11-13T10:07:52.693Z,1016.24
2017-11-13T10:09:15.214Z,1016.18
2017-11-13T10:10:37.061Z,1016.2
2017-11-13T10:11:58.592Z,1016.3
2017-11-13T10:13:21.154Z,1016.25
2017-11-13T10:14:43.353Z,1016.25
2017-11-13T10:16:05.536Z,1016.3
2017-11-13T10:17:28.072Z,1016.3
2017-11-13T10:18:50.603Z,1016.34
2017-11-13T10:20:12.793Z,1016.33
2017-11-13T10:21:34.898Z,1016.35
2017-11-13T10:22:57.086Z,1016.39
2017-11-13T10:24:19.372Z,1016.41
2017-11-13T10:25:41.554Z,1016.42
2017-11-13T10:27:03.754Z,1016.44
2017-11-13T10:28:26.047Z,1016.43
2017-11-13T10:29:48.287Z,1016.4
2017-11-13T10:31:10.471Z,1016.41
2017-11-13T10:32:32.001Z,1016.41
2017-11-13T10:33:53.855Z,1016.43
2017-11-13T10:35:16.036Z,1016.43
2017-11-13T10:36:38.584Z,1016.46
2017-11-13T10:38:01.112Z,1016.46
2017-11-13T10:39:23.640Z,1016.48
2017-11-13T10:40:44.849Z,1016.47
2017-11-13T10:42:06.745Z,1016.48
2017-11-13T10:43:29.262Z,1016.55
2017-11-13T10:44:51.103Z,1016.52
2017-11-13T10:46:13.284Z,1016.52
2017-11-13T10:47:35.823Z,1016.56
2017-11-13T10:48:57.668Z,1016.59
2017-11-13T10:50:20.187Z,1016.61
2017-11-13T10:51:42.486Z,1016.64
2017-11-13T10:53:05.042Z,1016.68
2017-11-13T10:54:26.882Z,1016.67
2017-11-13T10:55:48.768Z,1016.66
2017-11-13T10:57:09.982Z,1016.63
2017-11-13T10:58:31.982Z,1016.67
2017-11-13T10:59:53.939Z,1016.69
2017-11-13T11:01:15.807Z,1016.7
2017-11-13T11:02:38.084Z,1016.7
2017-11-13T11:04:00.279Z,1016.68
2017-11-13T11:05:22.167Z,1016.72
2017-11-13T11:06:44.412Z,1016.62
2017-11-13T11:08:06.615Z,1016.65
2017-11-13T11:09:27.934Z,1016.63
2017-11-13T11:10:50.505Z,1016.62
2017-11-13T11:12:13.069Z,1016.67
2017-11-13T11:13:35.273Z,1016.64
2017-11-13T11:14:57.468Z,1016.67
2017-11-13T11:16:19.802Z,1016.65
2017-11-13T11:17:41.978Z,1016.64
2017-11-13T11:19:04.185Z,1016.69
2017-11-13T11:20:26.120Z,1016.75
2017-11-13T11:21:48.257Z,1016.76
2017-11-13T11:23:10.793Z,1016.72
2017-11-13T11:24:32.331Z,1016.74
2017-11-13T11:25:53.993Z,1016.73
2017-11-13T11:27:15.280Z,1016.76
2017-11-13T11:28:37.483Z,1016.71
2017-11-13T11:29:59.128Z,1016.65
2017-11-13T11:31:20.753Z,1016.7
2017-11-13T11:32:42.263Z,1016.7
2017-11-13T11:34:04.563Z,1016.69
2017-11-13T11:35:26.430Z,1016.66
2017-11-13T11:36:48.675Z,1016.65
2017-11-13T11:38:10.464Z,1016.73
2017-11-13T11:39:32.006Z,1016.72
2017-11-13T11:40:54.296Z,1016.74
2017-11-13T11:42:16.504Z,1016.74
2017-11-13T11:43:38.045Z,1016.75
2017-11-13T11:44:59.577Z,1016.82
2017-11-13T11:46:21.773Z,1016.79
2017-11-13T11:47:43.304Z,1016.82
2017-11-13T11:49:05.306Z,1016.83
2017-11-13T11:50:27.853Z,1016.83
2017-11-13T11:51:50.032Z,1016.87
2017-11-13T11:53:12.572Z,1016.91
2017-11-13T11:54:34.424Z,1016.9
2017-11-13T11:55:56.630Z,1016.88
2017-11-13T11:57:19.164Z,1016.84
2017-11-13T11:58:41.043Z,1016.85
2017-11-13T12:00:03.605Z,1016.83
2017-11-13T12:01:25.585Z,1016.85
2017-11-13T12:02:47.933Z,1016.89
2017-11-13T12:04:10.138Z,1016.91
2017-11-13T12:05:31.613Z,1016.96
2017-11-13T12:06:54.123Z,1016.93
2017-11-13T12:08:16.328Z,1016.93
2017-11-13T12:09:37.910Z,1017
2017-11-13T12:11:00.093Z,1017.02
2017-11-13T12:12:21.982Z,1017.04
2017-11-13T12:13:44.501Z,1017.01
2017-11-13T12:15:06.799Z,1017.03
2017-11-13T12:16:29.001Z,1017.03
2017-11-13T12:17:51.256Z,1017.03
2017-11-13T12:19:13.833Z,1017.07
2017-11-13T12:20:35.687Z,1017.04
2017-11-13T12:21:58.449Z,1017.11
2017-11-13T12:23:19.971Z,1017.11
2017-11-13T12:24:41.849Z,1017.12
2017-11-13T12:26:04.025Z,1017.16
2017-11-13T12:27:26.656Z,1017.16
2017-11-13T12:28:48.540Z,1017.2
2017-11-13T12:30:10.409Z,1017.28
2017-11-13T12:31:32.614Z,1017.28
2017-11-13T12:32:55.137Z,1017.24
2017-11-13T12:34:16.685Z,1017.24
2017-11-13T12:35:38.896Z,1017.27
2017-11-13T12:37:00.499Z,1017.28
2017-11-13T12:38:22.694Z,1017.19
2017-11-13T12:39:44.684Z,1017.22
2017-11-13T12:41:06.270Z,1017.23
2017-11-13T12:42:28.508Z,1017.24
2017-11-13T12:43:50.993Z,1017.2
2017-11-13T12:45:13.375Z,1017.22
2017-11-13T12:46:35.249Z,1017.21
2017-11-13T12:47:57.145Z,1017.21
2017-11-13T12:49:18.676Z,1017.17
2017-11-13T12:50:40.544Z,1017.19
2017-11-13T12:52:02.051Z,1017.16
2017-11-13T12:53:23.935Z,1017.16
2017-11-13T12:54:45.797Z,1017.16
2017-11-13T12:56:08.105Z,1017.18
2017-11-13T12:57:30.345Z,1017.2
2017-11-13T12:58:53.065Z,1017.18
2017-11-13T13:00:15.583Z,1017.21
2017-11-13T13:01:37.518Z,1017.21
2017-11-13T13:02:59.698Z,1017.2
2017-11-13T13:04:21.189Z,1017.15
2017-11-13T13:05:43.055Z,1017.11
2017-11-13T13:07:05.285Z,1017.18
2017-11-13T13:08:27.153Z,1017.17
2017-11-13T13:09:48.688Z,1017.16
2017-11-13T13:11:10.873Z,1017.2
2017-11-13T13:12:32.548Z,1017.23
2017-11-13T13:13:54.762Z,1017.27
2017-11-13T13:15:17.279Z,1017.3
2017-11-13T13:16:39.116Z,1017.29
2017-11-13T13:18:01.644Z,1017.31
2017-11-13T13:19:24.133Z,1017.32
2017-11-13T13:20:46.333Z,1017.31
2017-11-13T13:22:08.855Z,1017.3
2017-11-13T13:23:31.416Z,1017.34
2017-11-13T13:24:53.951Z,1017.36
2017-11-13T13:26:15.895Z,1017.35
2017-11-13T13:27:37.745Z,1017.31
2017-11-13T13:28:59.996Z,1017.34
2017-11-13T13:30:21.907Z,1017.39
2017-11-13T13:31:43.804Z,1017.44
2017-11-13T13:33:06.346Z,1017.46
2017-11-13T13:34:28.896Z,1017.42
2017-11-13T13:35:50.509Z,1017.49
2017-11-13T13:37:12.736Z,1017.48
2017-11-13T13:38:34.607Z,1017.37
2017-11-13T13:39:57.185Z,1017.34
2017-11-13T13:41:19.414Z,1017.39
2017-11-13T13:42:41.390Z,1017.39
2017-11-13T13:44:03.876Z,1017.47
2017-11-13T13:45:25.463Z,1017.41
2017-11-13T13:46:48.025Z,1017.43
2017-11-13T13:48:10.575Z,1017.42
2017-11-13T13:51:09.534Z,1017.41
2017-11-13T13:52:31.718Z,1017.39
2017-11-13T13:53:53.576Z,1017.36
2017-11-13T13:55:15.770Z,1017.37
2017-11-13T13:56:38.315Z,1017.4
2017-11-13T13:57:59.843Z,1017.35
2017-11-13T13:59:22.392Z,1017.38
2017-11-13T14:00:44.590Z,1017.41
2017-11-13T14:02:07.165Z,1017.38
2017-11-13T14:03:29.033Z,1017.44
2017-11-13T14:04:51.276Z,1017.43
2017-11-13T14:06:13.957Z,1017.44
2017-11-13T14:07:36.495Z,1017.48
2017-11-13T14:08:58.745Z,1017.5
2017-11-13T14:10:20.960Z,1017.45
2017-11-13T14:11:42.833Z,1017.5
2017-11-13T14:13:04.717Z,1017.51
2017-11-13T14:14:27.274Z,1017.57
2017-11-13T14:15:49.222Z,1017.59
2017-11-13T14:17:11.137Z,1017.62
2017-11-13T14:18:32.667Z,1017.66
2017-11-13T14:19:54.870Z,1017.63
2017-11-13T14:21:16.849Z,1017.64
2017-11-13T14:22:39.029Z,1017.68
2017-11-13T14:24:01.221Z,1017.71
2017-11-13T14:25:23.834Z,1017.71
2017-11-13T14:26:46.025Z,1017.71
2017-11-13T14:28:07.896Z,1017.73
2017-11-13T14:29:30.467Z,1017.7
2017-11-13T14:30:52.994Z,1017.76
2017-11-13T14:32:15.208Z,1017.8
2017-11-13T14:33:37.096Z,1017.78
2017-11-13T14:34:58.763Z,1017.8
2017-11-13T14:36:20.737Z,1017.81
2017-11-13T14:37:42.934Z,1017.84
2017-11-13T14:39:05.125Z,1017.84
2017-11-13T14:40:26.646Z,1017.87
2017-11-13T14:41:48.875Z,1017.9
2017-11-13T14:43:10.741Z,1017.93
2017-11-13T14:44:32.947Z,1017.9
2017-11-13T14:45:55.495Z,1017.93
2017-11-13T14:47:17.707Z,1017.91
2017-11-13T14:48:40.084Z,1018
2017-11-13T14:50:02.417Z,1017.97
2017-11-13T14:51:24.967Z,1017.99
2017-11-13T14:52:47.179Z,1017.97
2017-11-13T14:54:09.712Z,1017.96
2017-11-13T14:55:31.595Z,1018
2017-11-13T14:56:53.838Z,1017.99
2017-11-13T14:58:16.429Z,1017.96
2017-11-13T14:59:39.070Z,1018.02
2017-11-13T15:01:01.718Z,1018.04
2017-11-13T15:02:23.955Z,1017.99
2017-11-13T15:03:46.146Z,1017.97
2017-11-13T15:05:08.516Z,1017.97
2017-11-13T15:06:30.705Z,1017.99
2017-11-13T15:07:52.557Z,1018.02
2017-11-13T15:09:14.450Z,1017.99
2017-11-13T15:10:36.684Z,1018
2017-11-13T15:11:58.596Z,1017.95
2017-11-13T15:13:20.790Z,1018
2017-11-13T15:14:43.335Z,1017.96
2017-11-13T15:16:05.865Z,1018.03
2017-11-13T15:17:28.152Z,1018.01
2017-11-13T15:18:49.706Z,1018.08
2017-11-13T15:20:12.318Z,1018.08
2017-11-13T15:21:34.901Z,1018.08
2017-11-13T15:22:56.878Z,1018.1
2017-11-13T15:24:19.507Z,1018.14
2017-11-13T15:25:41.705Z,1018.14
2017-11-13T15:27:03.995Z,1018.17
2017-11-13T15:28:26.556Z,1018.16
2017-11-13T15:29:48.885Z,1018.15
2017-11-13T15:31:10.739Z,1018.14
2017-11-13T15:32:33.281Z,1018.13
2017-11-13T15:33:55.479Z,1018.14
2017-11-13T15:35:17.336Z,1018.12
2017-11-13T15:36:38.929Z,1018.1
2017-11-13T15:38:01.466Z,1018.13
2017-11-13T15:39:24.018Z,1018.13
2017-11-13T15:40:46.709Z,1018.2
2017-11-13T15:42:08.582Z,1018.21
2017-11-13T15:43:30.896Z,1018.18
2017-11-13T15:44:53.094Z,1018.16
2017-11-13T15:46:15.302Z,1018.19
2017-11-13T15:47:37.828Z,1018.2
2017-11-13T15:49:00.393Z,1018.23
2017-11-13T15:50:22.606Z,1018.26
2017-11-13T15:51:45.136Z,1018.3
2017-11-13T15:53:07.665Z,1018.27
2017-11-13T15:54:29.206Z,1018.35
2017-11-13T15:55:51.418Z,1018.41
2017-11-13T15:57:13.994Z,1018.44
2017-11-13T15:58:35.870Z,1018.45
2017-11-13T15:59:58.526Z,1018.45
2017-11-13T16:01:20.731Z,1018.43
2017-11-13T16:02:42.287Z,1018.48
2017-11-13T16:04:03.847Z,1018.51
2017-11-13T16:05:26.076Z,1018.55
2017-11-13T16:06:48.633Z,1018.55
2017-11-13T16:08:11.235Z,1018.55
2017-11-13T16:09:33.449Z,1018.58
2017-11-13T16:10:55.677Z,1018.59
2017-11-13T16:12:17.643Z,1018.6
2017-11-13T16:13:40.180Z,1018.67
2017-11-13T16:15:02.066Z,1018.7
2017-11-13T16:16:23.916Z,1018.76
2017-11-13T16:17:46.136Z,1018.79
2017-11-13T16:19:07.691Z,1018.83
2017-11-13T16:20:30.246Z,1018.88
2017-11-13T16:21:52.762Z,1018.88
2017-11-13T16:23:14.956Z,1018.9
2017-11-13T16:24:37.245Z,1018.87
2017-11-13T16:25:59.524Z,1018.83
2017-11-13T16:27:21.695Z,1018.87
2017-11-13T16:28:43.545Z,1018.92
2017-11-13T16:30:06.193Z,1018.93
2017-11-13T16:31:28.817Z,1018.96
2017-11-13T16:32:51.345Z,1019
2017-11-13T16:34:13.567Z,1019.02
2017-11-13T16:35:35.778Z,1019
2017-11-13T16:36:58.417Z,1019.02
2017-11-13T16:38:20.378Z,1019
2017-11-13T16:39:42.575Z,1019.06
2017-11-13T16:41:04.805Z,1019.09
2017-11-13T16:42:26.685Z,1019.07
2017-11-13T16:43:48.579Z,1019.09
2017-11-13T16:45:11.142Z,1019.15
2017-11-13T16:46:33.354Z,1019.14
2017-11-13T16:47:55.568Z,1019.15
2017-11-13T16:49:18.130Z,1019.22
2017-11-13T16:50:40.316Z,1019.23
2017-11-13T16:52:02.510Z,1019.27
2017-11-13T16:53:24.869Z,1019.26
2017-11-13T16:54:47.153Z,1019.29
2017-11-13T16:56:09.385Z,1019.31
2017-11-13T16:57:31.605Z,1019.31
2017-11-13T16:58:53.887Z,1019.3
2017-11-13T17:00:16.467Z,1019.25
2017-11-13T17:01:39.001Z,1019.27
2017-11-13T17:03:01.552Z,1019.31
2017-11-13T17:04:23.441Z,1019.29
2017-11-13T17:05:46.040Z,1019.32
2017-11-13T17:07:07.907Z,1019.38
2017-11-13T17:08:30.091Z,1019.41
2017-11-13T17:09:52.606Z,1019.49
2017-11-13T17:11:14.886Z,1019.49
2017-11-13T17:12:37.128Z,1019.51
2017-11-13T17:13:59.670Z,1019.55
2017-11-13T17:15:21.685Z,1019.53
2017-11-13T17:16:43.606Z,1019.56
2017-11-13T17:18:05.805Z,1019.55
2017-11-13T17:19:28.092Z,1019.58
2017-11-13T17:20:50.340Z,1019.64
2017-11-13T17:22:12.551Z,1019.63
2017-11-13T17:23:34.758Z,1019.62
2017-11-13T17:24:56.426Z,1019.66
2017-11-13T17:26:18.994Z,1019.66
2017-11-13T17:27:41.226Z,1019.66
2017-11-13T17:29:03.989Z,1019.64
2017-11-13T17:30:26.747Z,1019.7
2017-11-13T17:31:49.348Z,1019.79
2017-11-13T17:33:11.550Z,1019.8
2017-11-13T17:34:34.099Z,1019.82
2017-11-13T17:35:56.643Z,1019.81
2017-11-13T17:37:19.316Z,1019.84
2017-11-13T17:38:41.500Z,1019.89
2017-11-13T17:40:03.814Z,1019.88
2017-11-13T17:41:26.372Z,1019.9
2017-11-13T17:42:48.257Z,1019.9
2017-11-13T17:44:10.478Z,1019.88
2017-11-13T17:45:32.768Z,1019.86
2017-11-13T17:46:54.637Z,1019.86
2017-11-13T17:48:16.855Z,1019.94
2017-11-13T17:49:39.033Z,1019.96
2017-11-13T17:51:00.978Z,1019.96
2017-11-13T17:52:23.210Z,1019.99
2017-11-13T17:53:45.913Z,1019.98
2017-11-13T17:55:08.091Z,1020.03
2017-11-13T17:56:30.421Z,1020.02
2017-11-13T17:57:52.661Z,1020.01
2017-11-13T17:59:14.528Z,1020.06
2017-11-13T18:00:36.677Z,1020.08
2017-11-13T18:01:59.477Z,1020.06
2017-11-13T18:03:21.346Z,1020.05
2017-11-13T18:04:43.903Z,1020.04
2017-11-13T18:06:05.793Z,1020.06
2017-11-13T18:07:28.025Z,1020.05
2017-11-13T18:08:49.872Z,1020.08
2017-11-13T18:10:12.095Z,1020.05
2017-11-13T18:11:34.690Z,1020.06
2017-11-13T18:12:57.236Z,1020.09
2017-11-13T18:14:19.468Z,1020.08
2017-11-13T18:15:41.712Z,1020.14
2017-11-13T18:17:03.614Z,1020.14
2017-11-13T18:18:25.775Z,1020.16
2017-11-13T18:19:48.446Z,1020.16
2017-11-13T18:21:10.997Z,1020.2
2017-11-13T18:22:35.586Z,1020.28
2017-11-13T18:23:57.475Z,1020.32
2017-11-13T18:25:19.724Z,1020.3
2017-11-13T18:26:41.606Z,1020.28
2017-11-13T18:28:03.850Z,1020.31
2017-11-13T18:29:26.418Z,1020.32
2017-11-13T18:30:48.947Z,1020.34
2017-11-13T18:32:11.146Z,1020.36
2017-11-13T18:33:32.677Z,1020.35
2017-11-13T18:34:54.892Z,1020.29
2017-11-13T18:36:17.105Z,1020.28
2017-11-13T18:37:39.692Z,1020.2
2017-11-13T18:39:02.257Z,1020.23
2017-11-13T18:40:24.519Z,1020.28
2017-11-13T18:41:46.869Z,1020.3
2017-11-13T18:43:09.454Z,1020.32
2017-11-13T18:44:31.677Z,1020.26
2017-11-13T18:45:54.346Z,1020.25
2017-11-13T18:47:16.886Z,1020.27
2017-11-13T18:48:39.594Z,1020.27
2017-11-13T18:50:01.460Z,1020.3
2017-11-13T18:51:24.176Z,1020.29
2017-11-13T18:52:46.386Z,1020.32
2017-11-13T18:54:08.630Z,1020.31
2017-11-13T18:55:31.195Z,1020.31
2017-11-13T18:56:53.119Z,1020.24
2017-11-13T18:58:15.716Z,1020.3
2017-11-13T18:59:38.278Z,1020.33
2017-11-13T19:01:00.575Z,1020.38
2017-11-13T19:02:23.228Z,1020.36
2017-11-13T19:03:45.472Z,1020.39
2017-11-13T19:05:08.075Z,1020.39
2017-11-13T19:06:30.741Z,1020.41
2017-11-13T19:07:53.300Z,1020.43
2017-11-13T19:09:15.546Z,1020.46
2017-11-13T19:10:37.751Z,1020.42
2017-11-13T19:11:59.969Z,1020.52
2017-11-13T19:13:22.587Z,1020.51
2017-11-13T19:14:45.184Z,1020.52
2017-11-13T19:16:07.750Z,1020.53
2017-11-13T19:17:29.643Z,1020.55
2017-11-13T19:18:51.869Z,1020.59
2017-11-13T19:20:14.077Z,1020.59
2017-11-13T19:21:36.631Z,1020.61
2017-11-13T19:22:59.198Z,1020.59
2017-11-13T19:24:21.972Z,1020.65
2017-11-13T19:25:44.563Z,1020.63
2017-11-13T19:27:07.096Z,1020.66
2017-11-13T19:28:29.334Z,1020.67
2017-11-13T19:29:51.894Z,1020.7
2017-11-13T19:31:14.444Z,1020.69
2017-11-13T19:32:36.495Z,1020.7
2017-11-13T19:33:58.774Z,1020.68
2017-11-13T19:35:21.385Z,1020.7
2017-11-13T19:36:44.059Z,1020.69
2017-11-13T19:38:06.297Z,1020.69
2017-11-13T19:39:28.158Z,1020.73
2017-11-13T19:40:50.721Z,1020.76
2017-11-13T19:42:12.284Z,1020.79
2017-11-13T19:43:34.537Z,1020.83
2017-11-13T19:44:57.115Z,1020.82
2017-11-13T19:46:19.330Z,1020.84
2017-11-13T19:47:41.217Z,1020.87
2017-11-13T19:49:03.457Z,1020.88
2017-11-13T19:50:25.431Z,1020.89
2017-11-13T19:51:47.716Z,1020.91
2017-11-13T19:53:10.307Z,1020.88
